Time;durP1;ratioP1;P1;durP2;ratioP2;P2;SDS_P1;SDS_P2;PMS_P1;PMS_P2;Temp;Humidity;BMP_temperature;BMP_pressure;BME280_temperature;BME280_humidity;BME280_pressure;Samples;Min_cycle;Max_cycle;Signal;HPM_P1;HPM_P2
2022/05/29 00:01:41;;;;;;;1.08;1.00;;;;;;;;;;7327244;19;162547;-18
2022/05/29 00:04:12;;;;;;;3.17;1.23;;;;;;;;;;7327626;19;154126;-18
2022/05/29 00:06:46;;;;;;;1.55;1.05;;;;;;;;;;7327620;19;153445;-18
2022/05/29 00:09:25;;;;;;;2.75;1.30;;;;;;;;;;7326714;19;161850;-19
2022/05/29 00:11:59;;;;;;;0.98;0.98;;;;;;;;;;7326959;19;162192;-18
2022/05/29 00:14:31;;;;;;;2.45;1.38;;;;;;;;;;7325408;19;154032;-18
2022/05/29 00:17:02;;;;;;;1.70;1.00;;;;;;;;;;7328045;19;153594;-18
2022/05/29 00:19:34;;;;;;;2.47;1.27;;;;;;;;;;7333964;19;161978;-18
2022/05/29 00:22:09;;;;;;;4.28;1.08;;;;;;;;;;7333630;19;162258;-17
2022/05/29 00:24:41;;;;;;;2.78;0.80;;;;;;;;;;7333914;19;154283;-18
2022/05/29 00:27:16;;;;;;;2.05;1.25;;;;;;;;;;7332716;19;153529;-18
2022/05/29 00:29:48;;;;;;;2.55;1.20;;;;;;;;;;7333379;19;162031;-17
2022/05/29 00:32:19;;;;;;;1.30;1.20;;;;;;;;;;7331870;19;162588;-18
2022/05/29 00:34:50;;;;;;;3.28;1.15;;;;;;;;;;7333756;19;154308;-18
2022/05/29 00:37:22;;;;;;;1.98;1.38;;;;;;;;;;7330638;19;153454;-18
2022/05/29 00:39:56;;;;;;;1.42;1.05;;;;;;;;;;7333165;19;161784;-18
2022/05/29 00:42:30;;;;;;;1.88;1.05;;;;;;;;;;7333022;19;162645;-18
2022/05/29 00:45:02;;;;;;;1.60;1.35;;;;;;;;;;7333656;19;154205;-18
2022/05/29 00:47:33;;;;;;;1.95;1.10;;;;;;;;;;7333296;19;153419;-18
2022/05/29 00:50:04;;;;;;;1.33;1.20;;;;;;;;;;7334492;19;161810;-18
2022/05/29 00:52:36;;;;;;;1.63;1.33;;;;;;;;;;7333197;19;162335;-19
2022/05/29 00:55:13;;;;;;;2.10;1.10;;;;;;;;;;7333349;19;154214;-18
2022/05/29 00:57:49;;;;;;;1.30;1.02;;;;;;;;;;7331119;19;153641;-18
2022/05/29 01:00:25;;;;;;;1.75;1.20;;;;;;;;;;7333043;19;161952;-18
2022/05/29 01:02:59;;;;;;;1.05;1.00;;;;;;;;;;7332635;19;162553;-18
2022/05/29 01:05:33;;;;;;;3.28;1.40;;;;;;;;;;7332738;19;154410;-18
2022/05/29 01:08:09;;;;;;;2.88;1.40;;;;;;;;;;7333021;19;153531;-18
2022/05/29 01:10:54;;;;;;;1.80;1.23;;;;;;;;;;7332161;19;161976;-18
2022/05/29 01:13:35;;;;;;;1.40;1.30;;;;;;;;;;7331819;19;162347;-18
2022/05/29 01:16:19;;;;;;;1.58;1.48;;;;;;;;;;7331927;19;132457;-18
2022/05/29 01:19:01;;;;;;;2.90;1.38;;;;;;;;;;7332835;19;153634;-18
2022/05/29 01:21:52;;;;;;;1.17;1.00;;;;;;;;;;7332293;19;161830;-18
2022/05/29 01:25:01;;;;;;;0.90;0.90;;;;;;;;;;7332179;19;162346;-18
2022/05/29 01:27:49;;;;;;;2.25;1.35;;;;;;;;;;7332291;19;154076;-18
2022/05/29 01:30:25;;;;;;;1.75;1.13;;;;;;;;;;7332097;19;153610;-18
2022/05/29 01:33:04;;;;;;;2.15;1.10;;;;;;;;;;7331856;19;161862;-20
2022/05/29 01:35:38;;;;;;;1.48;1.10;;;;;;;;;;7331872;19;162697;-18
2022/05/29 01:38:13;;;;;;;1.67;1.40;;;;;;;;;;7329876;19;153730;-18
2022/05/29 01:40:50;;;;;;;1.42;1.00;;;;;;;;;;7331986;19;153503;-18
2022/05/29 01:43:25;;;;;;;1.30;1.20;;;;;;;;;;7335835;19;161985;-18
2022/05/29 01:46:02;;;;;;;1.27;1.17;;;;;;;;;;7331771;19;162381;-18
2022/05/29 01:48:42;;;;;;;1.00;1.00;;;;;;;;;;7332170;19;154121;-18
2022/05/29 01:51:17;;;;;;;2.08;1.35;;;;;;;;;;7331600;19;153647;-19
2022/05/29 01:53:52;;;;;;;1.73;1.45;;;;;;;;;;7331143;19;162030;-19
2022/05/29 01:56:27;;;;;;;3.10;1.25;;;;;;;;;;7331063;19;162450;-18
2022/05/29 01:59:02;;;;;;;2.05;1.15;;;;;;;;;;7331281;19;154053;-19
2022/05/29 02:01:39;;;;;;;1.58;1.45;;;;;;;;;;7331274;19;153525;-19
2022/05/29 02:04:13;;;;;;;1.85;1.10;;;;;;;;;;7331251;19;162003;-19
2022/05/29 02:09:35;;;;;;;1.60;1.50;;;;;;;;;;7331249;19;154273;-18
2022/05/29 02:12:10;;;;;;;1.85;1.33;;;;;;;;;;7331161;19;153936;-18
2022/05/29 02:14:45;;;;;;;2.22;1.00;;;;;;;;;;7328661;19;162001;-18
2022/05/29 02:17:21;;;;;;;1.20;0.90;;;;;;;;;;7329767;19;162551;-17
2022/05/29 02:19:56;;;;;;;1.23;1.05;;;;;;;;;;7330911;19;153977;-18
2022/05/29 02:22:30;;;;;;;1.95;1.02;;;;;;;;;;7330800;19;153708;-18
2022/05/29 02:25:07;;;;;;;1.80;0.95;;;;;;;;;;7330459;19;162027;-18
2022/05/29 02:27:45;;;;;;;1.40;0.90;;;;;;;;;;7330411;19;162555;-18
2022/05/29 02:30:17;;;;;;;1.52;1.08;;;;;;;;;;7330857;19;153812;-18
2022/05/29 02:33:02;;;;;;;1.35;1.25;;;;;;;;;;7330548;19;153545;-18
2022/05/29 02:35:41;;;;;;;0.93;0.90;;;;;;;;;;7330110;19;161993;-18
2022/05/29 02:38:17;;;;;;;1.90;1.23;;;;;;;;;;7328201;19;162366;-18
2022/05/29 02:40:55;;;;;;;1.83;1.20;;;;;;;;;;7329013;19;154510;-18
2022/05/29 02:43:35;;;;;;;1.00;1.00;;;;;;;;;;7329337;19;153460;-17
2022/05/29 02:46:13;;;;;;;1.17;1.00;;;;;;;;;;7330035;19;161856;-17
2022/05/29 02:48:53;;;;;;;1.17;1.00;;;;;;;;;;7329928;19;162836;-17
2022/05/29 02:51:32;;;;;;;2.58;0.95;;;;;;;;;;7330272;19;154234;-17
2022/05/29 02:54:03;;;;;;;1.63;1.30;;;;;;;;;;7329849;19;153528;-17
2022/05/29 02:56:34;;;;;;;2.13;1.20;;;;;;;;;;7329442;19;161976;-17
2022/05/29 02:59:06;;;;;;;0.90;0.90;;;;;;;;;;7326965;19;162722;-17
2022/05/29 03:01:45;;;;;;;2.03;1.27;;;;;;;;;;7329856;19;154067;-18
2022/05/29 03:04:32;;;;;;;1.73;1.35;;;;;;;;;;7329424;19;153514;-17
2022/05/29 03:07:16;;;;;;;1.30;1.20;;;;;;;;;;7329223;19;162151;-17
2022/05/29 03:09:49;;;;;;;;;;;;;;;;;;7328560;19;162427;-16
2022/05/29 03:12:35;;;;;;;1.45;1.10;;;;;;;;;;7329321;19;154242;-18
2022/05/29 03:15:21;;;;;;;1.38;1.27;;;;;;;;;;7326029;19;153624;-17
2022/05/29 03:18:01;;;;;;;1.55;1.42;;;;;;;;;;7327219;19;161841;-18
2022/05/29 03:20:43;;;;;;;1.30;1.20;;;;;;;;;;7327661;19;162699;-17
2022/05/29 03:23:24;;;;;;;1.52;1.20;;;;;;;;;;7329097;19;154043;-18
2022/05/29 03:26:00;;;;;;;3.03;1.48;;;;;;;;;;7328048;19;153480;-18
2022/05/29 03:28:38;;;;;;;1.27;1.17;;;;;;;;;;7328771;19;161854;-18
2022/05/29 03:31:15;;;;;;;2.22;1.48;;;;;;;;;;7328522;19;162398;-19
2022/05/29 03:33:49;;;;;;;2.35;1.38;;;;;;;;;;7324503;19;153970;-17
2022/05/29 03:36:25;;;;;;;2.35;1.60;;;;;;;;;;7326831;19;153484;-16
2022/05/29 03:38:56;;;;;;;1.65;1.55;;;;;;;;;;7326232;19;161948;-17
2022/05/29 03:41:32;;;;;;;1.88;1.40;;;;;;;;;;7326844;19;162638;-18
2022/05/29 03:44:04;;;;;;;1.40;1.30;;;;;;;;;;7328350;19;154361;-17
2022/05/29 03:46:35;;;;;;;1.08;1.08;;;;;;;;;;7328099;19;153633;-16
2022/05/29 03:49:06;;;;;;;1.52;1.38;;;;;;;;;;7327641;19;161966;-17
2022/05/29 03:51:41;;;;;;;1.77;1.50;;;;;;;;;;7332358;19;162537;-17
2022/05/29 03:54:14;;;;;;;1.63;1.30;;;;;;;;;;7334673;19;154064;-19
2022/05/29 03:56:46;;;;;;;3.25;1.30;;;;;;;;;;7335366;19;153817;-17
2022/05/29 03:59:17;;;;;;;1.52;1.42;;;;;;;;;;7332941;19;161833;-18
2022/05/29 04:01:48;;;;;;;1.85;1.40;;;;;;;;;;7333790;19;162376;-18
2022/05/29 04:04:20;;;;;;;1.52;1.50;;;;;;;;;;7334657;19;154125;-18
2022/05/29 04:06:54;;;;;;;1.75;1.45;;;;;;;;;;7334490;19;153583;-18
2022/05/29 04:12:13;;;;;;;2.10;1.42;;;;;;;;;;7334316;19;162359;-18
2022/05/29 04:14:46;;;;;;;1.45;1.33;;;;;;;;;;7333052;19;154043;-18
2022/05/29 04:17:19;;;;;;;;;;;;;;;;;;7335168;19;153564;-18
2022/05/29 04:19:50;;;;;;;1.58;1.38;;;;;;;;;;7332324;19;162221;-18
2022/05/29 04:22:24;;;;;;;1.20;1.10;;;;;;;;;;7334127;19;162443;-18
2022/05/29 04:24:55;;;;;;;1.40;1.35;;;;;;;;;;7334565;19;154007;-18
2022/05/29 04:27:26;;;;;;;1.77;1.50;;;;;;;;;;7332792;19;153242;-18
2022/05/29 04:29:58;;;;;;;1.73;1.50;;;;;;;;;;7333732;19;161979;-17
2022/05/29 04:35:15;;;;;;;1.55;1.30;;;;;;;;;;7332815;19;154278;-17
2022/05/29 04:37:49;;;;;;;1.88;1.42;;;;;;;;;;7333581;19;153566;-17
2022/05/29 04:40:22;;;;;;;2.30;1.60;;;;;;;;;;7331184;19;161813;-18
2022/05/29 04:42:53;;;;;;;1.90;1.70;;;;;;;;;;7333683;19;162768;-17
2022/05/29 04:45:24;;;;;;;1.67;1.20;;;;;;;;;;7332616;19;154139;-17
2022/05/29 04:47:56;;;;;;;3.67;1.42;;;;;;;;;;7333208;19;153821;-18
2022/05/29 04:50:27;;;;;;;3.53;1.73;;;;;;;;;;7333096;19;161828;-18
2022/05/29 04:53:01;;;;;;;1.52;1.42;;;;;;;;;;7333205;19;162535;-17
2022/05/29 04:55:33;;;;;;;1.50;1.40;;;;;;;;;;7333461;19;154032;-26
2022/05/29 04:58:04;;;;;;;1.50;1.33;;;;;;;;;;7333309;19;153530;-17
2022/05/29 05:00:36;;;;;;;2.63;1.52;;;;;;;;;;7330861;19;161935;-18
2022/05/29 05:03:07;;;;;;;2.83;1.33;;;;;;;;;;7331892;19;162298;-18
2022/05/29 05:05:39;;;;;;;1.50;1.40;;;;;;;;;;7333101;19;154357;-17
2022/05/29 05:08:13;;;;;;;1.55;1.45;;;;;;;;;;7333061;19;153589;-17
2022/05/29 05:10:45;;;;;;;1.83;1.50;;;;;;;;;;7332530;19;161829;-18
2022/05/29 05:13:16;;;;;;;2.55;1.60;;;;;;;;;;7331635;19;162343;-17
2022/05/29 05:15:47;;;;;;;1.70;1.20;;;;;;;;;;7332889;19;154083;-18
2022/05/29 05:18:18;;;;;;;1.48;1.38;;;;;;;;;;7332848;19;153991;-17
2022/05/29 05:20:50;;;;;;;3.17;1.52;;;;;;;;;;7330249;19;161908;-17
2022/05/29 05:23:23;;;;;;;1.60;1.50;;;;;;;;;;7331158;19;163093;-17
2022/05/29 05:25:55;;;;;;;1.63;1.30;;;;;;;;;;7332372;19;154075;-17
2022/05/29 05:28:26;;;;;;;2.03;1.30;;;;;;;;;;7332440;19;153518;-18
2022/05/29 05:30:57;;;;;;;1.63;1.52;;;;;;;;;;7331945;19;161986;-17
2022/05/29 05:33:29;;;;;;;2.30;1.67;;;;;;;;;;7331052;19;162457;-17
2022/05/29 05:36:00;;;;;;;3.72;1.48;;;;;;;;;;7332310;19;154125;-18
2022/05/29 05:38:34;;;;;;;2.72;1.80;;;;;;;;;;7330989;19;153693;-17
2022/05/29 05:41:05;;;;;;;1.63;1.50;;;;;;;;;;7329963;19;161939;-18
2022/05/29 05:43:36;;;;;;;1.70;1.60;;;;;;;;;;7331981;19;162479;-18
2022/05/29 05:46:09;;;;;;;1.25;1.17;;;;;;;;;;7331095;19;154054;-18
2022/05/29 05:48:41;;;;;;;1.85;1.52;;;;;;;;;;7330642;19;153611;-17
2022/05/29 05:51:13;;;;;;;4.40;2.25;;;;;;;;;;7331735;19;161990;-17
2022/05/29 05:53:47;;;;;;;1.67;1.50;;;;;;;;;;7331446;19;162454;-18
2022/05/29 05:56:20;;;;;;;1.58;1.48;;;;;;;;;;7331714;19;153960;-18
2022/05/29 05:58:51;;;;;;;1.50;1.40;;;;;;;;;;7331661;19;153802;-17
2022/05/29 06:01:23;;;;;;;3.30;1.55;;;;;;;;;;7328869;19;161665;-17
2022/05/29 06:03:58;;;;;;;1.35;1.25;;;;;;;;;;7331112;19;162383;-17
2022/05/29 06:06:30;;;;;;;1.50;1.40;;;;;;;;;;7331416;19;154008;-17
2022/05/29 06:09:04;;;;;;;1.83;1.70;;;;;;;;;;7329890;19;153560;-17
2022/05/29 06:11:39;;;;;;;2.47;1.30;;;;;;;;;;7330823;19;162090;-17
2022/05/29 06:14:11;;;;;;;1.55;1.42;;;;;;;;;;7327227;19;162375;-18
2022/05/29 06:16:42;;;;;;;1.95;1.42;;;;;;;;;;7331055;19;154060;-18
2022/05/29 06:19:13;;;;;;;2.08;1.55;;;;;;;;;;7330975;19;153590;-17
2022/05/29 06:21:45;;;;;;;1.83;1.67;;;;;;;;;;7328155;19;162333;-18
2022/05/29 06:24:19;;;;;;;1.80;1.70;;;;;;;;;;7330565;19;162687;-17
2022/05/29 06:26:50;;;;;;;1.90;1.48;;;;;;;;;;7330946;19;154169;-17
2022/05/29 06:29:21;;;;;;;1.38;1.27;;;;;;;;;;7330469;19;153751;-17
2022/05/29 06:31:53;;;;;;;3.88;1.80;;;;;;;;;;7330232;19;162006;-18
2022/05/29 06:34:25;;;;;;;2.10;1.70;;;;;;;;;;7330298;19;162579;-17
2022/05/29 06:36:56;;;;;;;1.80;1.70;;;;;;;;;;7330271;19;154273;-17
2022/05/29 06:39:30;;;;;;;2.90;1.67;;;;;;;;;;7330648;19;153772;-17
2022/05/29 06:42:01;;;;;;;1.73;1.63;;;;;;;;;;7327610;19;161848;-18
2022/05/29 06:44:37;;;;;;;1.63;1.50;;;;;;;;;;7328707;19;162819;-18
2022/05/29 06:47:09;;;;;;;1.20;1.17;;;;;;;;;;7330345;19;153954;-18
2022/05/29 06:49:41;;;;;;;1.50;1.40;;;;;;;;;;7330600;19;153586;-18
2022/05/29 06:52:13;;;;;;;3.30;1.83;;;;;;;;;;7329794;19;161828;-17
2022/05/29 06:54:48;;;;;;;1.60;1.50;;;;;;;;;;7329821;19;163136;-23
2022/05/29 06:57:36;;;;;;;1.92;1.80;;;;;;;;;;7330085;19;154022;-18
2022/05/29 07:08:22;;;;;;;1.70;1.60;;;;;;;;;;7329942;19;154056;-17
2022/05/29 07:10:57;;;;;;;1.67;1.58;;;;;;;;;;7328647;19;154087;-17
2022/05/29 07:13:28;;;;;;;1.58;1.38;;;;;;;;;;7328342;19;161757;-18
2022/05/29 07:16:01;;;;;;;1.60;1.45;;;;;;;;;;7329190;19;162710;-17
2022/05/29 07:18:32;;;;;;;1.83;1.58;;;;;;;;;;7327969;19;154084;-18
2022/05/29 07:21:05;;;;;;;2.60;1.65;;;;;;;;;;7327857;19;153594;-17
2022/05/29 07:23:38;;;;;;;2.70;1.55;;;;;;;;;;7327631;19;162087;-17
2022/05/29 07:26:12;;;;;;;;;;;;;;;;;;7331655;19;162360;-17
2022/05/29 07:28:43;;;;;;;1.75;1.38;;;;;;;;;;7335539;19;154345;-18
2022/05/29 07:31:15;;;;;;;3.83;1.40;;;;;;;;;;7335768;19;153541;-17
2022/05/29 07:33:46;;;;;;;1.38;1.10;;;;;;;;;;7335394;19;162004;-17
2022/05/29 07:36:19;;;;;;;2.20;1.30;;;;;;;;;;7336554;19;162510;-18
2022/05/29 07:38:50;;;;;;;2.75;1.42;;;;;;;;;;7336059;19;154024;-18
2022/05/29 07:44:10;;;;;;;3.05;1.45;;;;;;;;;;7335137;19;162122;-18
2022/05/29 07:46:42;;;;;;;1.57;1.30;;;;;;;;;;7335393;19;162395;-17
2022/05/29 07:49:13;;;;;;;3.33;1.38;;;;;;;;;;7335524;19;154116;-18
2022/05/29 07:51:45;;;;;;;1.60;1.20;;;;;;;;;;7335701;19;153566;-18
2022/05/29 07:54:17;;;;;;;2.78;1.45;;;;;;;;;;7335397;19;162041;-18
2022/05/29 07:56:50;;;;;;;2.45;1.30;;;;;;;;;;7335024;19;162886;-18
2022/05/29 07:59:22;;;;;;;1.77;1.60;;;;;;;;;;7334531;19;153965;-18
2022/05/29 08:01:53;;;;;;;3.47;1.75;;;;;;;;;;7334346;19;153672;-18
2022/05/29 08:04:24;;;;;;;1.45;1.35;;;;;;;;;;7334876;19;161993;-17
2022/05/29 08:06:56;;;;;;;2.08;1.30;;;;;;;;;;7338274;19;162702;-18
2022/05/29 08:09:28;;;;;;;2.58;2.00;;;;;;;;;;7334229;19;154037;-18
2022/05/29 08:12:02;;;;;;;3.03;1.50;;;;;;;;;;7330039;19;153730;-18
2022/05/29 08:14:33;;;;;;;1.40;1.30;;;;;;;;;;7332230;19;162060;-18
2022/05/29 08:17:05;;;;;;;2.60;1.60;;;;;;;;;;7329918;19;163253;-18
2022/05/29 08:19:36;;;;;;;2.67;1.70;;;;;;;;;;7330126;19;154070;-18
2022/05/29 08:22:08;;;;;;;2.25;1.88;;;;;;;;;;7329592;19;153669;-19
2022/05/29 08:33:04;;;;;;;2.13;1.52;;;;;;;;;;7332801;19;153550;-19
2022/05/29 08:35:37;;;;;;;1.70;1.50;;;;;;;;;;7333689;19;161724;-18
2022/05/29 08:38:08;;;;;;;2.53;1.50;;;;;;;;;;7332121;19;162531;-19
2022/05/29 08:40:46;;;;;;;3.10;1.40;;;;;;;;;;7334215;19;154197;-18
2022/05/29 08:43:27;;;;;;;2.47;1.50;;;;;;;;;;7330474;19;153537;-18
2022/05/29 08:46:01;;;;;;;2.05;1.50;;;;;;;;;;7333567;19;161896;-19
2022/05/29 08:48:33;;;;;;;2.78;2.00;;;;;;;;;;7333633;19;162392;-19
2022/05/29 08:51:23;;;;;;;5.72;1.70;;;;;;;;;;7333570;19;153963;-19
2022/05/29 08:54:03;;;;;;;4.88;2.05;;;;;;;;;;7334047;19;153487;-19
2022/05/29 08:56:40;;;;;;;4.15;1.73;;;;;;;;;;7333584;19;162074;-18
2022/05/29 08:59:22;;;;;;;4.10;1.73;;;;;;;;;;7333333;19;162707;-19
2022/05/29 09:02:03;;;;;;;2.15;1.70;;;;;;;;;;7332759;19;154017;-18
2022/05/29 09:04:42;;;;;;;3.25;1.80;;;;;;;;;;7332798;19;153731;-17
2022/05/29 09:07:17;;;;;;;5.18;2.05;;;;;;;;;;7333308;19;161893;-18
2022/05/29 09:09:53;;;;;;;3.63;1.75;;;;;;;;;;7332951;19;162376;-18
2022/05/29 09:12:28;;;;;;;4.55;1.70;;;;;;;;;;7333599;19;154050;-19
2022/05/29 09:15:09;;;;;;;4.32;1.75;;;;;;;;;;7330396;19;153546;-18
2022/05/29 09:17:47;;;;;;;4.53;1.92;;;;;;;;;;7332799;19;162018;-18
2022/05/29 09:20:31;;;;;;;4.10;2.08;;;;;;;;;;7332596;19;162376;-18
2022/05/29 09:23:05;;;;;;;6.30;2.25;;;;;;;;;;7331305;19;154049;-18
2022/05/29 09:25:39;;;;;;;2.90;1.75;;;;;;;;;;7333097;19;153740;-18
2022/05/29 09:28:14;;;;;;;5.18;1.80;;;;;;;;;;7332529;19;162102;-18
2022/05/29 09:30:48;;;;;;;3.45;1.92;;;;;;;;;;7332266;19;162524;-17
2022/05/29 09:33:24;;;;;;;3.42;2.00;;;;;;;;;;7332479;19;154181;-18
2022/05/29 09:36:02;;;;;;;4.65;2.63;;;;;;;;;;7331456;19;153634;-18
2022/05/29 09:38:38;;;;;;;3.92;1.83;;;;;;;;;;7332018;19;161777;-18
2022/05/29 09:41:14;;;;;;;4.85;1.85;;;;;;;;;;7332032;19;162434;-18
2022/05/29 09:44:10;;;;;;;4.72;1.90;;;;;;;;;;7329716;19;153996;-18
2022/05/29 09:46:46;;;;;;;2.90;1.83;;;;;;;;;;7332922;19;153502;-19
2022/05/29 09:52:13;;;;;;;4.40;2.00;;;;;;;;;;7331622;19;162604;-20
2022/05/29 09:54:48;;;;;;;4.95;2.38;;;;;;;;;;7330602;19;154036;-18
2022/05/29 09:57:24;;;;;;;7.75;2.60;;;;;;;;;;7335451;19;153566;-18
2022/05/29 10:00:11;;;;;;;6.43;2.80;;;;;;;;;;7332386;19;162112;-19
2022/05/29 10:02:48;;;;;;;8.57;2.70;;;;;;;;;;7332351;19;162094;-19
2022/05/29 10:05:27;;;;;;;6.25;2.83;;;;;;;;;;7331762;19;154163;-18
2022/05/29 10:08:00;;;;;;;7.57;2.88;;;;;;;;;;7331012;19;153530;-19
2022/05/29 10:10:36;;;;;;;6.13;2.78;;;;;;;;;;7331874;19;161878;-18
2022/05/29 10:13:07;;;;;;;5.93;2.30;;;;;;;;;;7333766;19;162443;-19
2022/05/29 10:15:41;;;;;;;6.95;2.63;;;;;;;;;;7331556;19;154158;-19
2022/05/29 10:18:34;;;;;;;8.43;2.15;;;;;;;;;;7334869;19;153676;-19
2022/05/29 10:21:20;;;;;;;6.38;2.38;;;;;;;;;;7332018;19;162463;-17
2022/05/29 10:23:53;;;;;;;6.55;2.65;;;;;;;;;;7331749;19;164757;-17
2022/05/29 10:26:37;;;;;;;8.05;2.53;;;;;;;;;;7330876;19;154148;-17
2022/05/29 10:29:18;;;;;;;5.40;2.35;;;;;;;;;;7330639;19;153561;-17
2022/05/29 10:31:52;;;;;;;6.20;2.35;;;;;;;;;;7330520;19;162096;-17
2022/05/29 10:34:32;;;;;;;5.18;2.30;;;;;;;;;;7329912;19;162646;-18
2022/05/29 10:37:21;;;;;;;6.13;2.17;;;;;;;;;;7330493;19;154118;-16
2022/05/29 10:39:52;;;;;;;6.10;2.53;;;;;;;;;;7330342;19;153824;-17
2022/05/29 10:42:43;;;;;;;10.30;2.60;;;;;;;;;;7329827;19;161822;-18
2022/05/29 10:45:27;;;;;;;4.55;2.22;;;;;;;;;;7330405;19;162546;-18
2022/05/29 10:48:31;;;;;;;7.30;2.58;;;;;;;;;;7331507;19;154107;-18
2022/05/29 10:51:14;;;;;;;5.80;2.42;;;;;;;;;;7332582;19;153323;-17
2022/05/29 10:53:53;;;;;;;;;;;;;;;;;;7333750;19;161892;-17
2022/05/29 10:56:35;;;;;;;3.70;2.20;;;;;;;;;;7333718;19;163013;-18
2022/05/29 10:59:26;;;;;;;5.68;2.58;;;;;;;;;;7329578;19;154117;-18
2022/05/29 11:05:16;;;;;;;3.97;2.17;;;;;;;;;;7326463;19;161983;-18
2022/05/29 11:08:02;;;;;;;4.75;2.20;;;;;;;;;;7330164;19;162963;-19
2022/05/29 11:11:01;;;;;;;9.55;2.75;;;;;;;;;;7331607;19;154294;-19
2022/05/29 11:13:58;;;;;;;5.35;1.90;;;;;;;;;;7332315;19;153575;-17
2022/05/29 11:16:43;;;;;;;5.20;2.85;;;;;;;;;;7331836;19;162019;-18
2022/05/29 11:19:32;;;;;;;4.82;2.13;;;;;;;;;;7332076;19;162426;-18
2022/05/29 11:22:20;;;;;;;5.25;2.33;;;;;;;;;;7332020;19;154156;-19
2022/05/29 11:25:16;;;;;;;6.05;2.30;;;;;;;;;;7329840;19;153616;-17
2022/05/29 11:28:04;;;;;;;6.40;2.38;;;;;;;;;;7330544;19;161865;-18
2022/05/29 11:30:48;;;;;;;10.75;2.38;;;;;;;;;;7330209;19;163229;-18
2022/05/29 11:33:36;;;;;;;11.38;2.50;;;;;;;;;;7330841;19;154084;-18
2022/05/29 11:36:40;;;;;;;5.88;2.05;;;;;;;;;;7331332;19;153517;-19
2022/05/29 11:39:28;;;;;;;4.97;2.40;;;;;;;;;;7328051;19;162090;-18
2022/05/29 11:42:08;;;;;;;8.23;1.90;;;;;;;;;;7327853;19;162293;-17
2022/05/29 11:44:46;;;;;;;8.05;2.25;;;;;;;;;;7326589;19;153770;-19
2022/05/29 11:53:14;;;;;;;5.22;2.20;;;;;;;;;;7328005;19;162319;-19
2022/05/29 11:55:47;;;;;;;8.10;2.08;;;;;;;;;;7328292;19;154093;-18
2022/05/29 11:58:26;;;;;;;3.78;2.20;;;;;;;;;;7328087;19;153427;-18
2022/05/29 12:01:02;;;;;;;3.58;2.05;;;;;;;;;;7327806;19;161795;-19
2022/05/29 12:03:43;;;;;;;5.45;2.10;;;;;;;;;;7326982;19;162253;-19
2022/05/29 12:06:24;;;;;;;5.05;1.98;;;;;;;;;;7327546;19;154370;-18
2022/05/29 12:09:00;;;;;;;6.20;2.20;;;;;;;;;;7327269;19;153439;-19
2022/05/29 12:11:43;;;;;;;2.88;2.20;;;;;;;;;;7325610;19;162066;-19
2022/05/29 12:14:25;;;;;;;4.85;2.33;;;;;;;;;;7331453;19;162525;-18
2022/05/29 12:17:01;;;;;;;4.78;1.90;;;;;;;;;;7334289;19;154150;-18
2022/05/29 12:19:41;;;;;;;5.28;2.47;;;;;;;;;;7334760;19;153945;-19
2022/05/29 12:22:14;;;;;;;4.72;1.80;;;;;;;;;;7332713;19;161883;-18
2022/05/29 12:24:49;;;;;;;6.32;2.20;;;;;;;;;;7332588;19;162509;-19
2022/05/29 12:27:24;;;;;;;3.92;1.95;;;;;;;;;;7332525;19;154729;-18
2022/05/29 12:30:04;;;;;;;5.30;2.28;;;;;;;;;;7333299;19;154068;-17
2022/05/29 12:32:37;;;;;;;5.13;1.85;;;;;;;;;;7334000;19;162083;-17
2022/05/29 12:35:12;;;;;;;7.60;2.03;;;;;;;;;;7332668;19;162661;-17
2022/05/29 12:38:07;;;;;;;6.80;2.05;;;;;;;;;;7334066;19;153984;-17
2022/05/29 12:40:52;;;;;;;3.58;1.90;;;;;;;;;;7334033;19;153509;-17
2022/05/29 12:44:09;;;;;;;5.15;2.13;;;;;;;;;;7333262;19;161822;-17
2022/05/29 12:47:12;;;;;;;4.78;1.92;;;;;;;;;;7337157;19;162508;-17
2022/05/29 12:50:04;;;;;;;6.53;2.28;;;;;;;;;;7332489;19;154088;-18
2022/05/29 12:52:49;;;;;;;7.80;2.40;;;;;;;;;;7333909;19;153737;-17
2022/05/29 12:55:46;;;;;;;3.70;2.30;;;;;;;;;;7333482;19;161885;-17
2022/05/29 12:58:36;;;;;;;4.65;2.33;;;;;;;;;;7333465;19;162955;-19
2022/05/29 13:01:24;;;;;;;6.63;2.45;;;;;;;;;;7333661;19;154322;-18
2022/05/29 13:04:33;;;;;;;5.03;2.00;;;;;;;;;;7333386;19;153639;-18
2022/05/29 13:07:26;;;;;;;4.70;1.98;;;;;;;;;;7332928;19;162120;-18
2022/05/29 13:10:14;;;;;;;3.57;2.67;;;;;;;;;;7333145;19;162504;-18
2022/05/29 13:12:52;;;;;;;4.43;2.15;;;;;;;;;;7333193;19;154305;-18
2022/05/29 13:15:31;;;;;;;4.50;2.20;;;;;;;;;;7330279;19;153602;-18
2022/05/29 13:18:18;;;;;;;5.63;2.10;;;;;;;;;;7332601;19;161903;-18
2022/05/29 13:21:15;;;;;;;4.97;1.88;;;;;;;;;;7332083;19;162505;-18
2022/05/29 13:23:50;;;;;;;6.05;2.17;;;;;;;;;;7332294;19;154155;-18
2022/05/29 13:26:28;;;;;;;4.82;1.88;;;;;;;;;;7330539;19;153447;-18
2022/05/29 13:29:05;;;;;;;4.22;1.88;;;;;;;;;;7332283;19;162002;-18
2022/05/29 13:32:11;;;;;;;4.57;2.47;;;;;;;;;;7332371;19;162276;-18
2022/05/29 13:34:43;;;;;;;6.20;2.03;;;;;;;;;;7332405;19;154156;-20
2022/05/29 13:37:43;;;;;;;6.23;2.33;;;;;;;;;;7332684;19;153604;-18
2022/05/29 13:40:45;;;;;;;7.55;2.33;;;;;;;;;;7332150;19;161776;-18
2022/05/29 13:43:39;;;;;;;6.57;2.20;;;;;;;;;;7331861;19;162368;-18
2022/05/29 13:46:21;;;;;;;5.57;2.10;;;;;;;;;;7330653;19;154213;-23
2022/05/29 13:49:23;;;;;;;4.37;1.97;;;;;;;;;;7332271;19;153483;-19
2022/05/29 13:51:56;;;;;;;8.70;2.20;;;;;;;;;;7331456;19;161968;-22
2022/05/29 13:54:33;;;;;;;3.50;1.85;;;;;;;;;;7334210;19;162722;-19
2022/05/29 13:57:09;;;;;;;5.35;2.17;;;;;;;;;;7332344;19;154264;-23
2022/05/29 14:05:37;;;;;;;6.43;2.03;;;;;;;;;;7330004;19;162462;-18
2022/05/29 14:08:31;;;;;;;3.17;1.65;;;;;;;;;;7331415;19;154030;-18
2022/05/29 14:11:18;;;;;;;2.58;1.60;;;;;;;;;;7331148;19;153583;-18
2022/05/29 14:13:52;;;;;;;6.45;2.33;;;;;;;;;;7330060;19;161828;-18
2022/05/29 14:16:41;;;;;;;4.25;1.90;;;;;;;;;;7331198;19;162533;-17
2022/05/29 14:19:39;;;;;;;5.95;1.58;;;;;;;;;;7330303;19;154009;-17
2022/05/29 14:22:28;;;;;;;3.38;1.58;;;;;;;;;;7334210;19;153591;-18
2022/05/29 14:25:27;;;;;;;5.50;2.10;;;;;;;;;;7330503;19;161583;-18
2022/05/29 14:28:11;;;;;;;2.63;1.60;;;;;;;;;;7332951;19;162412;-18
2022/05/29 14:31:18;;;;;;;6.55;1.60;;;;;;;;;;7333051;19;154146;-18
2022/05/29 14:34:14;;;;;;;6.20;1.83;;;;;;;;;;7331654;19;153804;-18
2022/05/29 14:37:12;;;;;;;3.08;2.00;;;;;;;;;;7331317;19;162976;-18
2022/05/29 14:39:52;;;;;;;3.63;2.00;;;;;;;;;;7331827;19;162350;-19
2022/05/29 14:42:27;;;;;;;2.83;1.35;;;;;;;;;;7332322;19;154179;-18
2022/05/29 14:45:07;;;;;;;3.40;2.00;;;;;;;;;;7332031;19;153877;-18
2022/05/29 14:47:47;;;;;;;4.63;1.80;;;;;;;;;;7331714;19;161831;-19
2022/05/29 14:50:22;;;;;;;4.03;1.95;;;;;;;;;;7330782;19;162509;-18
2022/05/29 14:53:02;;;;;;;2.55;1.63;;;;;;;;;;7332139;19;154182;-18
2022/05/29 14:55:43;;;;;;;3.78;1.75;;;;;;;;;;7333888;19;153564;-18
2022/05/29 14:58:27;;;;;;;5.38;1.65;;;;;;;;;;7331751;19;161817;-18
2022/05/29 15:01:05;;;;;;;7.45;2.33;;;;;;;;;;7332120;19;162127;-18
2022/05/29 15:03:43;;;;;;;3.03;1.17;;;;;;;;;;7330363;19;154021;-17
2022/05/29 15:06:16;;;;;;;6.07;1.55;;;;;;;;;;7330099;19;153619;-16
2022/05/29 15:11:39;;;;;;;3.25;1.88;;;;;;;;;;7334090;19;162494;-17
2022/05/29 15:14:13;;;;;;;3.55;1.80;;;;;;;;;;7327236;19;154030;-17
2022/05/29 15:16:52;;;;;;;3.03;1.75;;;;;;;;;;7329679;19;153487;-17
2022/05/29 15:24:08;;;;;;;3.65;1.50;;;;;;;;;;7329212;19;161906;-17
2022/05/29 15:25:13;;;;;;;3.60;1.50;;;;;;;;;;7329879;19;153981;-17
2022/05/29 15:27:46;;;;;;;4.60;1.73;;;;;;;;;;7326906;19;153859;-17
2022/05/29 15:30:20;;;;;;;3.65;1.50;;;;;;;;;;7329180;19;162037;-18
2022/05/29 15:32:59;;;;;;;8.48;2.30;;;;;;;;;;7329007;19;162161;-19
2022/05/29 15:35:37;;;;;;;2.97;1.60;;;;;;;;;;7330580;19;153990;-19
2022/05/29 15:38:18;;;;;;;6.60;1.55;;;;;;;;;;7330996;19;153527;-19
2022/05/29 15:40:58;;;;;;;3.75;1.88;;;;;;;;;;7331440;19;161773;-19
2022/05/29 15:43:55;;;;;;;6.53;2.08;;;;;;;;;;7328335;19;162375;-19
2022/05/29 15:47:07;;;;;;;3.63;1.88;;;;;;;;;;7328453;19;154090;-19
2022/05/29 15:49:57;;;;;;;4.13;1.70;;;;;;;;;;7337289;19;153819;-18
2022/05/29 15:52:37;;;;;;;3.75;1.92;;;;;;;;;;7334842;19;161938;-19
2022/05/29 15:55:28;;;;;;;5.30;2.00;;;;;;;;;;7334683;19;162413;-18
2022/05/29 15:58:22;;;;;;;5.43;1.40;;;;;;;;;;7339436;19;154026;-19
2022/05/29 16:01:09;;;;;;;6.63;1.50;;;;;;;;;;7334786;19;153656;-18
2022/05/29 16:03:43;;;;;;;6.43;2.15;;;;;;;;;;7337559;19;162088;-18
2022/05/29 16:06:20;;;;;;;2.20;1.48;;;;;;;;;;7336063;19;162443;-19
2022/05/29 16:09:04;;;;;;;4.45;1.60;;;;;;;;;;7337988;19;154272;-18
2022/05/29 16:11:40;;;;;;;3.45;1.70;;;;;;;;;;7336334;19;153575;-17
2022/05/29 16:14:12;;;;;;;7.32;2.40;;;;;;;;;;7335215;19;161824;-17
2022/05/29 16:17:04;;;;;;;3.17;1.60;;;;;;;;;;7337894;19;162370;-16
2022/05/29 16:19:42;;;;;;;8.18;1.70;;;;;;;;;;7333140;19;154227;-22
2022/05/29 16:22:47;;;;;;;3.20;1.73;;;;;;;;;;7337506;19;153772;-16
2022/05/29 16:25:24;;;;;;;6.40;2.00;;;;;;;;;;7335247;19;161765;-17
2022/05/29 16:28:06;;;;;;;7.25;1.70;;;;;;;;;;7335267;19;162372;-17